Time;durP1;ratioP1;P1;durP2;ratioP2;P2;SDS_P1;SDS_P2;PMS_P1;PMS_P2;Temp;Humidity;BMP_temperature;BMP_pressure;BME280_temperature;BME280_humidity;BME280_pressure;Samples;Min_cycle;Max_cycle;Signal;HPM_P1;HPM_P2
2022/01/13 00:02:06;;;;;;;11.93;4.28;;;;;;;-13.50;100.00;102007.44;1771986;79;21035;-86
2022/01/13 00:04:32;;;;;;;11.00;4.90;;;;;;;-13.51;100.00;102008.22;1771705;81;21047;-89
2022/01/13 00:07:00;;;;;;;11.97;5.90;;;;;;;-13.52;100.00;102006.50;1771474;79;21584;-89
2022/01/13 00:09:27;;;;;;;11.60;5.22;;;;;;;-13.53;100.00;102003.52;1771643;81;21130;-86
2022/01/13 00:11:56;;;;;;;12.55;5.62;;;;;;;-13.52;100.00;102010.66;1771652;79;21016;-87
2022/01/13 00:14:37;;;;;;;12.15;5.35;;;;;;;-13.52;100.00;102012.77;1770860;79;21038;-85
2022/01/13 00:19:35;;;;;;;14.85;6.22;;;;;;;-13.52;100.00;102015.67;1774211;79;21019;-86
2022/01/13 00:24:54;;;;;;;15.85;6.25;;;;;;;-13.52;100.00;102006.91;1774506;80;21049;-85
2022/01/13 00:27:19;;;;;;;13.08;5.80;;;;;;;-13.54;100.00;102018.09;1775008;80;21583;-85
2022/01/13 00:29:48;;;;;;;14.23;6.08;;;;;;;-13.56;100.00;102022.20;1774617;80;21081;-85
2022/01/13 00:32:29;;;;;;;;;;;;;;;;;;;;;
2022/01/13 00:34:54;;;;;;;16.42;6.40;;;;;;;-13.54;100.00;102014.73;1747763;80;21081;-87
2022/01/13 00:37:21;;;;;;;14.23;6.42;;;;;;;-13.49;100.00;102017.05;1775004;80;21069;-87
2022/01/13 00:39:48;;;;;;;13.48;5.72;;;;;;;-13.46;100.00;102009.69;1774877;80;21528;-86
2022/01/13 00:42:16;;;;;;;20.50;7.53;;;;;;;-13.46;100.00;102004.67;1742183;81;21575;-87
2022/01/13 00:44:45;;;;;;;14.58;6.35;;;;;;;-13.47;100.00;102005.45;1771709;79;21043;-87
2022/01/13 00:47:12;;;;;;;11.78;4.55;;;;;;;-13.48;100.00;102003.73;1771401;79;21923;-86
2022/01/13 00:49:39;;;;;;;10.28;4.05;;;;;;;-13.49;100.00;102005.39;1771540;79;21147;-85
2022/01/13 00:52:07;;;;;;;13.18;5.45;;;;;;;-13.53;100.00;102013.55;1791990;79;20990;-85
2022/01/13 00:54:35;;;;;;;13.50;5.00;;;;;;;-13.59;100.00;102012.02;1803159;79;21030;-88
2022/01/13 00:57:04;;;;;;;9.53;4.03;;;;;;;-13.64;100.00;102014.72;1802973;79;20994;-89
2022/01/13 00:59:31;;;;;;;8.03;3.40;;;;;;;-13.64;100.00;102014.30;1803127;79;22313;-89
2022/01/13 01:01:58;;;;;;;7.72;3.02;;;;;;;-13.66;100.00;102015.88;1803178;79;21050;-87
2022/01/13 01:04:25;;;;;;;6.72;2.95;;;;;;;-13.65;100.00;102021.77;1802923;79;21057;-88
2022/01/13 01:06:53;;;;;;;5.20;2.02;;;;;;;-13.70;100.00;102024.05;1803271;79;21034;-86
2022/01/13 01:09:40;;;;;;;4.60;2.27;;;;;;;-13.73;100.00;102025.14;1803125;79;21050;-88
2022/01/13 01:12:04;;;;;;;5.78;3.08;;;;;;;-13.78;100.00;102028.25;1804025;79;21099;-89
2022/01/13 01:14:40;;;;;;;5.12;2.42;;;;;;;-13.81;100.00;102026.42;1802689;79;21010;-87
2022/01/13 01:17:05;;;;;;;6.72;3.95;;;;;;;-13.87;100.00;102032.41;1803909;79;20987;-88
2022/01/13 01:19:37;;;;;;;10.80;4.60;;;;;;;-13.91;100.00;102022.63;1803358;79;21049;-88
2022/01/13 01:22:28;;;;;;;10.28;5.03;;;;;;;-13.92;100.00;102018.41;1803503;79;21571;-89
2022/01/13 01:27:23;;;;;;;12.70;4.90;;;;;;;-13.91;100.00;102010.52;1803703;79;21022;-88
2022/01/13 01:29:57;;;;;;;9.35;4.75;;;;;;;-13.94;100.00;102012.48;1803172;79;21037;-87
2022/01/13 01:32:20;;;;;;;12.73;5.50;;;;;;;-13.99;100.00;102016.40;1803154;79;21445;-88
2022/01/13 01:34:55;;;;;;;8.28;4.92;;;;;;;-14.02;100.00;102017.11;1803639;79;21017;-86
2022/01/13 01:37:26;;;;;;;12.50;6.97;;;;;;;-14.03;100.00;102010.39;1802937;79;21136;-87
2022/01/13 01:39:56;;;;;;;11.63;5.30;;;;;;;-14.06;100.00;102010.63;1802981;79;21594;-87
2022/01/13 01:42:25;;;;;;;11.70;4.90;;;;;;;-14.08;100.00;102013.07;1802346;79;21069;-88
2022/01/13 01:44:56;;;;;;;11.15;5.62;;;;;;;-14.10;100.00;102014.63;1795325;79;21696;-89
2022/01/13 01:47:30;;;;;;;11.80;5.08;;;;;;;-14.12;100.00;102016.20;1795085;79;21046;-89
2022/01/13 01:50:17;;;;;;;9.70;5.58;;;;;;;-14.13;100.00;102011.97;1795952;79;21722;-88
2022/01/13 01:52:41;;;;;;;9.73;4.83;;;;;;;-14.14;100.00;102014.88;1791576;79;21007;-88
2022/01/13 01:55:10;;;;;;;3.65;2.33;;;;;;;-14.14;100.00;102016.54;1795934;79;20998;-88
2022/01/13 01:57:38;;;;;;;2.60;1.30;;;;;;;-14.16;100.00;102018.09;1795146;79;27515;-89
2022/01/13 02:00:10;;;;;;;2.95;1.52;;;;;;;-14.18;100.00;102022.16;1796031;79;21026;-90
2022/01/13 02:02:41;;;;;;;5.83;2.65;;;;;;;-14.20;100.00;102018.72;1759415;81;21125;-88
2022/01/13 02:05:09;;;;;;;5.12;2.45;;;;;;;-14.22;100.00;102019.91;1764373;81;21120;-87
2022/01/13 02:07:37;;;;;;;8.63;3.60;;;;;;;-14.23;100.00;102015.67;1790255;79;21073;-88
2022/01/13 02:10:06;;;;;;;5.28;3.35;;;;;;;-14.25;100.00;102023.91;1795755;79;21058;-87
2022/01/13 02:12:41;;;;;;;8.13;3.27;;;;;;;-14.29;100.00;102031.25;1795923;79;21065;-89
2022/01/13 02:17:40;;;;;;;6.62;3.17;;;;;;;-14.35;100.00;102037.20;1791291;79;21519;-86
2022/01/13 02:20:11;;;;;;;10.48;4.25;;;;;;;-14.38;100.00;102034.95;1795889;79;21073;-88
2022/01/13 02:22:38;;;;;;;11.05;4.87;;;;;;;-14.41;100.00;102035.66;1796341;79;21685;-87
2022/01/13 02:25:08;;;;;;;8.48;4.42;;;;;;;-14.42;100.00;102030.18;1796203;79;21046;-87
2022/01/13 02:27:35;;;;;;;8.20;3.92;;;;;;;-14.44;100.00;102022.98;1795527;79;21149;-88
2022/01/13 02:30:03;;;;;;;12.15;5.28;;;;;;;-14.46;100.00;102028.32;1795739;79;21061;-87
2022/01/13 02:32:31;;;;;;;11.30;5.42;;;;;;;-14.47;100.00;102031.20;1795891;79;21073;-86
2022/01/13 02:34:58;;;;;;;12.70;5.40;;;;;;;-14.46;100.00;102031.67;1795424;79;21070;-87
2022/01/13 02:37:25;;;;;;;11.28;4.58;;;;;;;-14.45;100.00;102026.27;1796301;79;21082;-86
2022/01/13 02:39:52;;;;;;;4.97;2.80;;;;;;;-14.47;100.00;102029.10;1794495;79;21806;-87
2022/01/13 02:42:19;;;;;;;7.30;3.17;;;;;;;-14.50;100.00;102027.69;1780115;79;21086;-87
2022/01/13 02:45:05;;;;;;;3.05;1.85;;;;;;;-14.53;100.00;102027.52;1800402;79;21018;-86
2022/01/13 02:50:02;;;;;;;3.85;2.17;;;;;;;-14.57;100.00;102028.16;1814409;79;21550;-87
2022/01/13 02:52:29;;;;;;;7.60;2.65;;;;;;;-14.59;100.00;102034.34;1806960;79;21916;-87
2022/01/13 02:54:56;;;;;;;5.42;2.65;;;;;;;-14.62;100.00;102028.77;1814261;79;21018;-88
2022/01/13 02:57:23;;;;;;;7.00;2.45;;;;;;;-14.61;100.00;102034.25;1814322;79;21598;-86
2022/01/13 02:59:54;;;;;;;3.30;2.17;;;;;;;-14.62;100.00;102035.03;1814474;79;21025;-88
2022/01/13 03:02:29;;;;;;;;;;;;;;;-14.65;100.00;102034.89;1817055;79;21070;-88
2022/01/13 03:04:52;;;;;;;7.30;3.22;;;;;;;-14.68;100.00;102041.41;1813113;79;21145;-86
2022/01/13 03:07:21;;;;;;;2.75;1.67;;;;;;;-14.71;100.00;102039.62;1814343;79;21034;-85
2022/01/13 03:09:48;;;;;;;6.22;3.40;;;;;;;-14.77;100.00;102049.28;1794634;79;20998;-88
2022/01/13 03:12:15;;;;;;;4.97;3.17;;;;;;;-14.81;100.00;102052.02;1744917;80;21539;-87
2022/01/13 03:14:42;;;;;;;9.83;4.25;;;;;;;-14.82;100.00;102050.70;1760246;80;21018;-87
2022/01/13 03:17:09;;;;;;;8.50;4.50;;;;;;;-14.83;100.00;102058.98;1744871;80;21111;-88
2022/01/13 03:19:36;;;;;;;10.93;4.78;;;;;;;-14.84;100.00;102046.00;1782341;78;21508;-87
2022/01/13 03:22:05;;;;;;;8.30;4.33;;;;;;;-14.85;100.00;102050.53;1744617;80;21554;-87
2022/01/13 03:24:32;;;;;;;7.22;3.60;;;;;;;-14.85;100.00;102043.02;1782336;78;21734;-87
2022/01/13 03:27:02;;;;;;;8.05;3.95;;;;;;;-14.85;100.00;102051.78;1744936;80;21049;-87
2022/01/13 03:29:30;;;;;;;11.50;5.25;;;;;;;-14.87;100.00;102048.36;1760866;80;22170;-85
2022/01/13 03:31:57;;;;;;;10.63;4.20;;;;;;;-14.89;100.00;102052.01;1744923;82;21073;-87
2022/01/13 03:34:25;;;;;;;8.98;3.75;;;;;;;-14.92;100.00;102056.87;1782314;78;21061;-87
2022/01/13 03:36:53;;;;;;;9.90;4.65;;;;;;;-14.97;100.00;102048.25;1714932;82;21085;-88
2022/01/13 03:39:20;;;;;;;12.82;5.45;;;;;;;-14.98;100.00;102051.55;1725882;83;21647;-87
2022/01/13 03:41:48;;;;;;;10.75;5.58;;;;;;;-15.00;100.00;102045.20;1782271;80;21125;-88
2022/01/13 03:44:27;;;;;;;14.13;5.37;;;;;;;-14.99;100.00;102058.17;1740771;81;21088;-88
2022/01/13 03:46:47;;;;;;;9.18;4.20;;;;;;;-14.99;100.00;102041.92;1726711;82;21094;-87
2022/01/13 03:49:13;;;;;;;10.43;4.80;;;;;;;-15.00;100.00;102050.61;1739225;80;20995;-88
2022/01/13 03:52:04;;;;;;;9.68;3.92;;;;;;;-15.02;100.00;102051.75;1716436;82;21030;-87
2022/01/13 03:54:39;;;;;;;9.55;4.67;;;;;;;-15.06;100.00;102047.39;1711186;83;21173;-86
2022/01/13 03:57:42;;;;;;;7.67;3.83;;;;;;;-15.08;100.00;102053.94;1688584;83;21054;-87
2022/01/13 04:00:42;;;;;;;9.00;5.10;;;;;;;-15.11;100.00;102049.64;1710797;82;22353;-87
2022/01/13 04:03:10;;;;;;;9.30;4.08;;;;;;;-15.13;100.00;102054.09;1731249;82;21110;-88
2022/01/13 04:06:11;;;;;;;4.72;2.77;;;;;;;-15.16;100.00;102065.16;1749897;81;21090;-87
2022/01/13 04:08:40;;;;;;;10.88;3.70;;;;;;;-15.20;100.00;102069.55;1731239;81;21369;-88
2022/01/13 04:11:15;;;;;;;6.87;2.80;;;;;;;-15.25;100.00;102060.55;1720297;81;20999;-88
2022/01/13 04:16:19;;;;;;;4.80;2.62;;;;;;;-15.28;100.00;102062.50;1669070;83;21032;-88
2022/01/13 04:18:48;;;;;;;13.43;4.62;;;;;;;-15.28;100.00;102052.88;1724067;83;21663;-87
2022/01/13 04:21:18;;;;;;;9.35;4.92;;;;;;;-15.20;100.00;102065.39;1771699;80;21100;-88
2022/01/13 04:23:46;;;;;;;12.93;4.05;;;;;;;-14.95;100.00;102057.95;1772054;81;21034;-86
2022/01/13 04:26:18;;;;;;;18.30;4.40;;;;;;;-14.80;100.00;102064.15;1771714;81;21038;-86
2022/01/13 04:28:43;;;;;;;8.03;3.05;;;;;;;-14.72;100.00;102057.03;1768270;81;21500;-87
2022/01/13 04:31:10;;;;;;;7.85;2.65;;;;;;;-14.59;100.00;102055.20;1771563;81;21343;-87
2022/01/13 04:33:38;;;;;;;3.60;1.57;;;;;;;-14.75;100.00;102050.23;1772270;80;21096;-87
2022/01/13 04:36:08;;;;;;;9.38;3.72;;;;;;;-14.89;100.00;102063.66;1771716;81;21021;-87
2022/01/13 04:38:35;;;;;;;10.20;4.33;;;;;;;-14.99;100.00;102053.17;1775732;79;26491;-86
2022/01/13 04:41:04;;;;;;;14.53;3.00;;;;;;;-14.86;100.00;102056.34;1717096;82;21022;-88
2022/01/13 04:43:33;;;;;;;6.97;2.80;;;;;;;-14.65;100.00;102059.91;1747893;80;21070;-90
2022/01/13 04:46:00;;;;;;;3.55;1.72;;;;;;;-14.47;100.00;102056.22;1788444;78;21131;-88
2022/01/13 04:48:27;;;;;;;12.58;3.52;;;;;;;-14.57;100.00;102048.17;1782168;79;20996;-87
2022/01/13 04:50:54;;;;;;;5.72;2.95;;;;;;;-14.75;100.00;102051.48;1789944;78;21606;-88
2022/01/13 04:53:21;;;;;;;6.90;2.75;;;;;;;-14.89;100.00;102055.77;1725839;80;21551;-88
2022/01/13 04:55:56;;;;;;;6.70;3.52;;;;;;;-15.00;100.00;102050.20;1813593;79;21018;-86
2022/01/13 04:58:22;;;;;;;7.05;1.87;;;;;;;-15.08;100.00;102062.31;1808805;79;21840;-87
2022/01/13 05:00:49;;;;;;;3.85;1.65;;;;;;;-15.12;100.00;102070.81;1804379;79;21020;-87
2022/01/13 05:03:15;;;;;;;3.25;1.65;;;;;;;-15.18;100.00;102070.09;1793823;78;21097;-88
2022/01/13 05:05:42;;;;;;;3.08;2.08;;;;;;;-15.23;100.00;102074.84;1725929;82;21017;-87
2022/01/13 05:08:09;;;;;;;3.25;2.02;;;;;;;-15.25;100.00;102083.04;1782652;80;21006;-89
2022/01/13 05:10:37;;;;;;;6.17;2.70;;;;;;;-15.30;100.00;102066.55;1745781;82;21690;-87
2022/01/13 05:13:08;;;;;;;5.72;2.95;;;;;;;-15.32;100.00;102077.23;1782627;80;21014;-85
2022/01/13 05:15:35;;;;;;;6.72;2.52;;;;;;;-15.34;100.00;102080.88;1746016;81;21046;-87
2022/01/13 05:18:28;;;;;;;7.72;3.75;;;;;;;-15.36;100.00;102074.97;1731762;81;21693;-86
2022/01/13 05:21:03;;;;;;;8.48;4.12;;;;;;;-15.36;100.00;102081.21;1731422;80;21140;-87
2022/01/13 05:23:20;;;;;;;10.90;5.15;;;;;;;-15.36;100.00;102089.08;1719178;81;21074;-86
2022/01/13 05:25:48;;;;;;;8.75;4.42;;;;;;;-15.33;100.00;102100.09;1743768;81;21085;-88
2022/01/13 05:28:16;;;;;;;8.63;4.28;;;;;;;-15.29;100.00;102093.63;1718594;82;21192;-88
2022/01/13 05:30:45;;;;;;;9.38;4.50;;;;;;;-15.27;100.00;102088.34;1740113;81;21068;-88
2022/01/13 05:33:13;;;;;;;10.63;4.35;;;;;;;-15.25;100.00;102091.78;1741396;80;21341;-88
2022/01/13 05:35:41;;;;;;;11.38;4.87;;;;;;;-15.23;100.00;102097.73;1748356;81;21103;-88
2022/01/13 05:38:09;;;;;;;9.65;5.10;;;;;;;-15.20;100.00;102095.78;1770692;81;21160;-89
2022/01/13 05:40:38;;;;;;;11.20;4.65;;;;;;;-15.18;100.00;102097.98;1770868;81;21042;-88
2022/01/13 05:43:06;;;;;;;8.68;4.30;;;;;;;-15.17;100.00;102103.44;1749644;81;21086;-88
2022/01/13 05:45:34;;;;;;;8.80;4.30;;;;;;;-15.15;100.00;102092.77;1747035;80;21607;-88
2022/01/13 05:48:04;;;;;;;8.55;3.70;;;;;;;-15.11;100.00;102089.64;1750196;81;21128;-88
2022/01/13 05:50:32;;;;;;;5.43;2.67;;;;;;;-15.06;100.00;102094.88;1744388;81;21036;-88
2022/01/13 05:53:00;;;;;;;1.98;1.02;;;;;;;-15.00;100.00;102097.70;1740809;81;21646;-88
2022/01/13 05:55:27;;;;;;;2.77;1.67;;;;;;;-14.95;100.00;102101.33;1746479;81;21030;-87
2022/01/13 05:57:54;;;;;;;6.05;2.55;;;;;;;-14.88;100.00;102087.89;1735004;82;21090;-88
2022/01/13 06:00:24;;;;;;;10.38;4.10;;;;;;;-14.82;100.00;102089.46;1729577;82;21643;-89
2022/01/13 06:02:51;;;;;;;4.20;2.52;;;;;;;-14.76;100.00;102091.02;1782443;79;21028;-89
2022/01/13 06:05:19;;;;;;;6.67;3.35;;;;;;;-14.68;100.00;102093.53;1786883;79;20974;-88
2022/01/13 06:07:47;;;;;;;7.12;2.67;;;;;;;-14.63;100.00;102082.11;1782151;79;21015;-87
2022/01/13 06:10:19;;;;;;;7.17;4.55;;;;;;;-14.59;100.00;102083.98;1782560;80;21560;-89
2022/01/13 06:12:49;;;;;;;8.75;3.35;;;;;;;-14.54;100.00;102083.38;1781140;80;21297;-90
2022/01/13 06:15:19;;;;;;;4.28;2.25;;;;;;;-14.48;100.00;102083.68;1749588;80;21034;-88
2022/01/13 06:17:49;;;;;;;;;;;;;;;-14.44;100.00;102088.04;1777745;80;21055;-88
2022/01/13 06:20:18;;;;;;;4.87;2.22;;;;;;;-14.41;100.00;102093.21;1782662;80;20132;-88
2022/01/13 06:22:47;;;;;;;11.90;3.72;;;;;;;-14.37;100.00;102093.83;1782406;80;21090;-90
2022/01/13 06:25:16;;;;;;;11.25;5.20;;;;;;;-14.32;100.00;102082.42;1754439;79;21154;-89
2022/01/13 06:27:43;;;;;;;12.98;4.72;;;;;;;-14.31;100.00;102089.16;1797679;79;21119;-88
2022/01/13 06:30:14;;;;;;;9.38;4.40;;;;;;;-14.28;100.00;102095.95;1814708;79;21061;-88
2022/01/13 06:32:43;;;;;;;7.58;3.02;;;;;;;-14.24;100.00;102105.73;1813535;78;21586;-89
2022/01/13 06:35:11;;;;;;;4.12;2.35;;;;;;;-14.21;100.00;102109.24;1814633;78;21586;-88
2022/01/13 06:37:41;;;;;;;5.40;3.00;;;;;;;-14.17;100.00;102106.50;1775783;80;21207;-89
2022/01/13 06:40:12;;;;;;;8.75;3.92;;;;;;;-14.14;100.00;102101.66;1775736;80;20940;-88
2022/01/13 06:42:39;;;;;;;6.60;2.77;;;;;;;-14.12;100.00;102093.44;1774903;80;21097;-88
2022/01/13 06:45:10;;;;;;;6.30;2.83;;;;;;;-14.08;100.00;102092.31;1744989;82;21056;-90
2022/01/13 06:47:38;;;;;;;6.37;3.62;;;;;;;-14.06;100.00;102087.00;1797463;78;21049;-89
2022/01/13 06:50:08;;;;;;;7.20;2.72;;;;;;;-14.04;100.00;102092.95;1762535;79;22250;-88
2022/01/13 06:52:35;;;;;;;9.18;4.53;;;;;;;-14.03;100.00;102077.15;1784047;78;21313;-89
2022/01/13 06:55:04;;;;;;;3.98;2.15;;;;;;;-14.01;100.00;102085.20;1781109;78;21033;-86
2022/01/13 06:57:31;;;;;;;6.17;2.85;;;;;;;-13.99;100.00;102091.15;1790671;78;21003;-89
2022/01/13 06:59:58;;;;;;;7.05;4.08;;;;;;;-13.99;100.00;102087.39;1791265;78;21029;-89
2022/01/13 07:02:27;;;;;;;10.28;4.40;;;;;;;-13.99;100.00;102094.91;1789846;79;21768;-88
2022/01/13 07:04:54;;;;;;;5.55;2.67;;;;;;;-13.98;100.00;102091.59;1774320;79;21006;-88
2022/01/13 07:07:21;;;;;;;7.97;3.90;;;;;;;-13.97;100.00;102086.20;1782336;79;21021;-88
2022/01/13 07:09:48;;;;;;;8.40;3.17;;;;;;;-13.94;100.00;102091.75;1749503;80;21092;-89
2022/01/13 07:12:17;;;;;;;7.03;3.33;;;;;;;-13.94;100.00;102087.63;1686749;83;21688;-89
2022/01/13 07:14:45;;;;;;;3.87;2.45;;;;;;;-13.92;100.00;102092.70;1781564;80;21057;-88
2022/01/13 07:17:12;;;;;;;16.35;6.83;;;;;;;-13.91;100.00;102092.77;1734819;80;21082;-88
2022/01/13 07:19:40;;;;;;;8.83;3.75;;;;;;;-13.85;100.00;102085.95;1786676;79;21085;-88
2022/01/13 07:22:09;;;;;;;3.55;2.45;;;;;;;-13.82;100.00;102071.08;1742560;79;20998;-88
2022/01/13 07:24:36;;;;;;;5.17;2.45;;;;;;;-13.79;100.00;102067.45;1786557;78;21019;-88
2022/01/13 07:27:03;;;;;;;10.05;2.80;;;;;;;-13.79;100.00;102072.45;1800317;79;21804;-88
2022/01/13 07:29:30;;;;;;;6.55;3.45;;;;;;;-13.77;100.00;102050.86;1784297;79;21011;-88
2022/01/13 07:31:57;;;;;;;4.55;2.45;;;;;;;-13.73;100.00;102062.72;1784896;79;21035;-90
2022/01/13 07:34:24;;;;;;;7.25;3.52;;;;;;;-13.65;100.00;102062.70;1791532;79;21013;-90
2022/01/13 07:36:52;;;;;;;12.03;5.42;;;;;;;-13.58;100.00;102045.47;1795523;79;20978;-89
2022/01/13 07:39:19;;;;;;;6.22;2.98;;;;;;;-13.51;100.00;102043.30;1804173;79;21784;-89
2022/01/13 07:41:46;;;;;;;7.58;3.33;;;;;;;-13.38;100.00;102042.20;1786582;79;21035;-90
2022/01/13 07:44:17;;;;;;;7.45;4.00;;;;;;;-13.27;100.00;102036.41;1777602;80;21133;-90
2022/01/13 07:46:45;;;;;;;9.75;4.25;;;;;;;-13.23;100.00;102040.80;1779606;80;21066;-92
2022/01/13 07:49:12;;;;;;;9.23;4.55;;;;;;;-13.23;100.00;102050.83;1779657;79;21678;-90
2022/01/13 07:51:52;;;;;;;12.35;4.45;;;;;;;-13.19;100.00;102036.78;1696558;82;21634;-89
2022/01/13 07:54:19;;;;;;;6.78;3.45;;;;;;;-13.16;100.00;102031.88;1735242;80;20994;-89
2022/01/13 07:56:47;;;;;;;5.15;2.15;;;;;;;-13.19;100.00;102038.88;1787603;79;21635;-90
2022/01/13 07:59:15;;;;;;;3.98;2.12;;;;;;;-13.19;100.00;102044.30;1717608;82;21071;-89
2022/01/13 08:01:42;;;;;;;24.25;8.20;;;;;;;-13.12;100.00;102037.89;1792305;78;21121;-89
2022/01/13 08:04:09;;;;;;;5.15;2.67;;;;;;;-13.06;100.00;102034.02;1786562;78;21749;-88
2022/01/13 08:06:36;;;;;;;2.85;1.30;;;;;;;-12.97;100.00;102031.45;1789941;79;21045;-89
2022/01/13 08:09:03;;;;;;;3.92;2.02;;;;;;;-12.89;100.00;102027.64;1812163;78;21095;-91
2022/01/13 08:11:32;;;;;;;6.53;2.75;;;;;;;-12.78;100.00;102024.34;1778984;79;21022;-88
2022/01/13 08:14:00;;;;;;;3.60;2.47;;;;;;;-12.69;100.00;102024.73;1775540;80;21039;-89
2022/01/13 08:16:41;;;;;;;8.78;3.58;;;;;;;-12.65;100.00;102007.75;1782005;78;21422;-90
2022/01/13 08:21:55;;;;;;;6.17;3.05;;;;;;;-12.54;100.00;102019.53;1785699;78;21633;-90
2022/01/13 08:24:22;;;;;;;6.15;3.25;;;;;;;-12.50;100.00;101992.48;1784653;78;21609;-88
2022/01/13 08:26:49;;;;;;;7.70;3.30;;;;;;;-12.39;100.00;101997.58;1780840;79;21053;-89
2022/01/13 08:29:16;;;;;;;11.45;3.42;;;;;;;-12.29;100.00;101997.92;1802572;78;21093;-88
2022/01/13 08:31:45;;;;;;;7.40;3.92;;;;;;;-12.18;100.00;101999.23;1796928;78;21025;-88
2022/01/13 08:34:14;;;;;;;7.22;2.47;;;;;;;-12.08;100.00;101985.00;1789752;78;21075;-88
2022/01/13 08:36:42;;;;;;;8.48;3.92;;;;;;;-11.95;100.00;101990.47;1775742;80;21010;-89
2022/01/13 08:39:11;;;;;;;5.92;2.60;;;;;;;-11.85;100.00;101982.88;1795247;79;21033;-88
2022/01/13 08:41:41;;;;;;;3.65;2.15;;;;;;;-11.80;100.00;101982.69;1783787;78;21133;-88
2022/01/13 08:44:10;;;;;;;4.65;2.02;;;;;;;-11.74;100.00;101976.63;1749744;79;21591;-89
2022/01/13 08:46:38;;;;;;;8.08;3.12;;;;;;;-11.66;100.00;101970.66;1761931;80;21044;-88
2022/01/13 08:49:05;;;;;;;13.78;4.78;;;;;;;-11.62;100.00;101972.47;1692024;83;21559;-88
2022/01/13 08:51:33;;;;;;;7.87;3.40;;;;;;;-11.59;100.00;101971.34;1772553;80;21026;-88
2022/01/13 08:54:03;;;;;;;6.65;2.80;;;;;;;-11.53;100.00;101965.66;1786981;79;21518;-89
2022/01/13 08:56:31;;;;;;;4.70;2.75;;;;;;;-11.44;100.00;101953.44;1807740;79;21030;-88
2022/01/13 08:59:00;;;;;;;9.83;4.15;;;;;;;-11.33;100.00;101960.98;1782210;79;21070;-88
2022/01/13 09:01:30;;;;;;;7.97;3.98;;;;;;;-11.28;100.00;101953.20;1784309;78;21534;-88
2022/01/13 09:03:59;;;;;;;10.85;3.00;;;;;;;-11.23;100.00;101947.08;1793862;78;20951;-88
2022/01/13 09:06:26;;;;;;;3.60;2.10;;;;;;;-11.19;100.00;101953.95;1727990;81;21098;-88
2022/01/13 09:08:53;;;;;;;11.43;5.30;;;;;;;-11.16;100.00;101954.45;1807851;78;21721;-88
2022/01/13 09:11:20;;;;;;;6.20;3.35;;;;;;;-11.10;100.00;101953.41;1744828;82;21021;-88
2022/01/13 09:13:55;;;;;;;4.65;2.70;;;;;;;-11.01;100.00;101950.34;1744774;82;21037;-88
2022/01/13 09:16:18;;;;;;;10.70;3.65;;;;;;;-11.01;100.00;101949.09;1782995;78;21464;-88
2022/01/13 09:19:07;;;;;;;5.53;2.60;;;;;;;-11.05;100.00;101946.03;1716338;80;21226;-88
2022/01/13 09:21:17;;;;;;;10.65;4.70;;;;;;;-11.04;100.00;101949.84;1783583;79;21018;-88
2022/01/13 09:23:44;;;;;;;7.37;3.90;;;;;;;-10.99;100.00;101941.20;1745470;80;21124;-89
2022/01/13 09:26:11;;;;;;;10.72;4.20;;;;;;;-10.96;100.00;101933.36;1700185;83;21984;-88
2022/01/13 09:28:39;;;;;;;10.80;4.60;;;;;;;-10.90;100.00;101916.77;1760965;79;21435;-88
2022/01/13 09:31:07;;;;;;;6.85;3.72;;;;;;;-10.91;100.00;101914.64;1716163;82;21079;-88
2022/01/13 09:33:35;;;;;;;9.00;4.15;;;;;;;-10.90;100.00;101914.26;1782233;80;21109;-89
2022/01/13 09:36:07;;;;;;;7.62;2.85;;;;;;;-10.89;100.00;101911.78;1745026;80;21090;-88
2022/01/13 09:38:36;;;;;;;10.88;3.92;;;;;;;-10.83;100.00;101919.95;1782367;79;21504;-87
2022/01/13 09:41:04;;;;;;;5.67;2.92;;;;;;;-10.73;100.00;101913.56;1744698;80;21570;-88
2022/01/13 09:43:31;;;;;;;6.92;2.92;;;;;;;-10.67;100.00;101909.59;1744886;80;21980;-88
2022/01/13 09:45:59;;;;;;;13.48;4.05;;;;;;;-10.58;100.00;101913.22;1777909;79;21653;-87
2022/01/13 09:48:27;;;;;;;4.00;2.35;;;;;;;-10.48;100.00;101908.53;1737103;81;21022;-88
2022/01/13 09:50:55;;;;;;;7.85;3.50;;;;;;;-10.41;100.00;101906.20;1726580;83;21536;-87
2022/01/13 09:53:23;;;;;;;10.23;4.00;;;;;;;-10.39;100.00;101904.59;1733936;82;21015;-89
2022/01/13 09:55:50;;;;;;;3.83;1.52;;;;;;;-10.38;100.00;101900.02;1726613;82;21082;-86
2022/01/13 09:58:17;;;;;;;6.58;2.65;;;;;;;-10.41;100.00;101904.94;1726763;82;21007;-88
2022/01/13 10:00:45;;;;;;;8.28;3.62;;;;;;;-10.39;100.00;101892.00;1726650;83;21050;-88
2022/01/13 10:03:22;;;;;;;4.80;2.80;;;;;;;-10.38;100.00;101883.64;1704384;83;21003;-87
2022/01/13 10:05:57;;;;;;;8.58;3.55;;;;;;;-10.42;100.00;101885.59;1743961;80;21030;-87
2022/01/13 10:08:47;;;;;;;8.63;3.83;;;;;;;-10.42;100.00;101878.91;1755996;80;21121;-87
2022/01/13 10:11:29;;;;;;;7.87;3.50;;;;;;;-10.37;100.00;101882.42;1740866;81;21070;-86
2022/01/13 10:17:01;;;;;;;7.87;3.52;;;;;;;-10.27;100.00;101889.82;1747764;81;21022;-86
2022/01/13 10:19:43;;;;;;;5.10;1.80;;;;;;;-10.12;100.00;101873.08;1767730;81;21077;-88
2022/01/13 10:22:26;;;;;;;6.42;3.37;;;;;;;-10.01;100.00;101870.87;1719615;82;21455;-88
2022/01/13 10:24:54;;;;;;;2.92;1.72;;;;;;;-9.94;100.00;101876.54;1725518;81;21023;-87
2022/01/13 10:27:33;;;;;;;11.45;4.83;;;;;;;-9.87;100.00;101872.12;1730969;81;21033;-87
2022/01/13 10:30:09;;;;;;;9.00;4.03;;;;;;;-9.83;100.00;101860.08;1726264;81;21044;-88
2022/01/13 10:32:41;;;;;;;5.97;2.62;;;;;;;-9.85;100.00;101855.77;1726300;81;21050;-88
2022/01/13 10:35:15;;;;;;;8.35;3.85;;;;;;;-9.81;100.00;101858.02;1702480;83;21094;-89
2022/01/13 10:37:46;;;;;;;8.23;3.65;;;;;;;-9.78;100.00;101852.65;1781604;79;21073;-81
2022/01/13 10:40:29;;;;;;;7.25;4.40;;;;;;;-9.78;100.00;101845.09;1787121;79;20991;-87
2022/01/13 10:45:40;;;;;;;6.03;3.25;;;;;;;-9.61;100.00;101847.23;1777941;79;20940;-88
2022/01/13 10:48:19;;;;;;;7.47;2.60;;;;;;;-9.60;100.00;101846.00;1736980;81;21093;-84
2022/01/13 10:51:07;;;;;;;6.85;3.02;;;;;;;-9.60;100.00;101846.00;1719219;82;21037;-87
2022/01/13 10:53:34;;;;;;;8.85;3.87;;;;;;;-9.56;100.00;101823.82;1739543;81;21592;-87
2022/01/13 10:56:09;;;;;;;4.83;2.67;;;;;;;-9.51;100.00;101812.21;1744137;82;21551;-90
2022/01/13 10:58:50;;;;;;;10.00;3.67;;;;;;;-9.50;100.00;101805.48;1790930;79;21006;-88
2022/01/13 11:01:17;;;;;;;6.62;3.62;;;;;;;-9.44;100.00;101799.75;1793363;79;21180;-85
2022/01/13 11:03:47;;;;;;;4.87;2.45;;;;;;;-9.39;100.00;101791.89;1795926;79;21077;-86
2022/01/13 11:06:15;;;;;;;9.37;3.87;;;;;;;-9.37;100.00;101791.53;1796648;79;21088;-87
2022/01/13 11:08:46;;;;;;;9.65;3.10;;;;;;;-9.36;100.00;101791.98;1795909;79;21650;-87
2022/01/13 11:11:20;;;;;;;7.58;3.22;;;;;;;-9.33;100.00;101785.73;1796451;79;21547;-87
2022/01/13 11:13:58;;;;;;;3.10;1.85;;;;;;;-9.27;100.00;101792.22;1796320;79;21129;-88
2022/01/13 11:16:30;;;;;;;13.80;3.42;;;;;;;-9.21;100.00;101794.02;1774789;79;21041;-84
2022/01/13 11:18:59;;;;;;;8.68;4.25;;;;;;;-9.10;100.00;101793.05;1769638;79;21068;-84
2022/01/13 11:21:27;;;;;;;11.25;4.05;;;;;;;-9.00;100.00;101796.23;1772667;79;21125;-83
2022/01/13 11:23:57;;;;;;;6.67;2.85;;;;;;;-9.00;100.00;101779.83;1733766;81;21026;-84
2022/01/13 11:26:30;;;;;;;9.03;4.87;;;;;;;-9.01;100.00;101786.11;1760063;80;21786;-86
2022/01/13 11:29:00;;;;;;;8.85;4.17;;;;;;;-9.04;100.00;101790.67;1772031;79;21027;-86
2022/01/13 11:31:27;;;;;;;12.20;5.67;;;;;;;-9.05;100.00;101785.18;1793062;79;21014;-86
2022/01/13 11:33:54;;;;;;;10.35;3.98;;;;;;;-9.05;100.00;101782.23;1777611;79;21018;-88
2022/01/13 11:36:23;;;;;;;8.68;3.37;;;;;;;-9.06;100.00;101775.51;1769277;79;21042;-87
2022/01/13 11:39:00;;;;;;;12.53;4.17;;;;;;;-9.06;100.00;101785.99;1650842;84;21073;-87
2022/01/13 11:41:27;;;;;;;5.37;3.08;;;;;;;-9.05;100.00;101788.55;1715920;82;21049;-86
2022/01/13 11:44:14;;;;;;;12.25;5.05;;;;;;;-9.02;100.00;101780.61;1719141;79;21041;-87
2022/01/13 11:46:52;;;;;;;6.80;3.10;;;;;;;-8.97;100.00;101778.65;1718164;81;21081;-89